Meath Environmental Platform

Observations for Trim Market St

Time AQI Temp °C Hum % Pres Pa CO μg/m³ H₂S μg/m³ NO μg/m³ NO₂ μg/m³ O₃ μg/m³ SO₂ μg/m³ PM1 μg/m³ PM2.5 μg/m³ PM10 μg/m³
Friday 21 August 2026
06:53 2 9.7 81 2,147,483,647 0.6 0 15.73 12.73 30.55 0 1.43 2.54 5.85
06:51 2 9.6 81 2,147,483,647 0.63 0 31.4 20.73 12.29 0 0.71 2.53 6.41
06:50 2 9.6 81 2,147,483,647 0.66 0 31.38 26.18 6.35 0 1.43 2.54 5.29
06:49 2 9.6 81 2,147,483,647 0.61 0 27.17 15.86 18.08 0 0.71 2.06 4.73
06:47 2 9.6 81 2,147,483,647 0.67 0 17.35 19.26 14.74 0 2.14 3.94 6.97
06:35 2 9.6 81 2,147,483,647 0.6 0 65.27 15.54 20.83 0 0.71 2.07 5.29
06:34 2 9.6 81 2,147,483,647 0.6 0 70.48 18.01 21.45 0 0.71 1.59 4.72
06:33 2 9.6 81 2,147,483,647 0.7 0 70.94 52.73 0 0 1.43 2.54 6.97
06:32 2 9.6 81 2,147,483,647 0.86 0 70.82 215.68 0 0 3.56 5.83 11.46
06:31 2 9.6 81 2,147,483,647 1.38 0 66.16 19.25 18.49 0 0.71 2.07 6.97
06:29 2 9.6 81 2,147,483,647 1.12 0 14.14 13.57 26.51 0 1.43 2.07 4.72
06:27 2 9.6 81 2,147,483,647 0.6 0 10.02 14.56 24.92 0 0.71 2.06 5.29
06:26 2 9.6 81 2,147,483,647 0.58 0 7.58 12.13 28.73 0 0.71 2.06 5.29
06:25 2 9.6 81 2,147,483,647 0.58 0 7.19 12.13 28.58 0 0.71 1.59 5.29
06:24 2 9.6 81 2,147,483,647 0.6 0 7.26 12.26 28.59 0 0.71 1.59 5.29
06:20 2 9.6 81 2,147,483,647 0.62 0 8.02 12.98 28.03 0 0.71 1.59 4.17
06:13 2 9.6 81 2,147,483,647 0.6 0 10.02 12.38 29.17 0 0.71 2.53 5.29
06:12 2 9.6 81 2,147,483,647 0.6 0 9.13 12.25 29.08 0 1.43 2.06 4.73
06:10 2 9.6 81 2,147,483,647 0.63 0 9.23 13.99 25.82 0 0.71 2.06 5.29
06:06 2 9.7 81 2,147,483,647 0.58 0 5.71 13.47 28.45 0 0.71 2.07 5.85